Thursday, June 21, 2018, 6:31 AM EDT
Back to Local

KLFI, Langley Air Force Base

Location: Hampton, VA, United States Lat: 37.083
Local Time: 6:31 AM EDT (10:31 GMT) Lon: -76.35
Time Zone: US/Eastern Elev: 9 ft

Show me the last for .
Show Decoded

2018-06-21 04:56 METAR KLFI 210856Z AUTO 25003KT 10SM CLR 23/23 A2975 RMK AO2 SLP081 T02250225
                 55008 =
2018-06-21 03:56 METAR KLFI 210756Z AUTO 25006KT 10SM CLR 22/22 A2975 RMK AO2 SLP081 T02240224 =
2018-06-21 02:56 METAR KLFI 210656Z AUTO 24006KT 10SM CLR 23/23 A2977 RMK AO2 SLP088 T02280228 =
2018-06-21 01:56 METAR KLFI 210556Z AUTO 19009KT 10SM SCT110 SCT150 24/23 A2978 RMK AO2 RAB32E45
                 SLP091 P0000 60003 T02380234 10257 20231 58013 =
2018-06-21 01:45 METAR KLFI 210545Z AUTO 21005KT 10SM FEW110 FEW150 24/23 A2979 RMK AO2 RAB32E45
                 SLP094 =
2018-06-21 01:32 METAR KLFI 210532Z AUTO 20005KT 10SM -RA FEW120 SCT150 24/23 A2979 RMK AO2 RAB32
                 SLP094 =
2018-06-21 00:56 METAR KLFI 210456Z AUTO 22009KT 10SM SCT120 23/23 A2979 RMK AO2 SLP094 T02330229
                 403150231 =
2018-06-20 23:56 METAR KLFI 210356Z AUTO 30009KT 10SM SCT150 23/23 A2983 RMK AO2 SLP108 T02320230
                 =
2018-06-20 22:56 METAR KLFI 210256Z AUTO 22008KT 10SM SCT140 24/24 A2982 RMK AO2 SLP105 60003
                 T02410236 53007 =
2018-06-20 21:58 METAR KLFI 210158Z 20006KT 10SM FEW008 SCT150 25/25 A2982 RMK AO2A RAB0111E0135
                 SLP105 P0000 60004 T02470247 53006 =
2018-06-20 20:57 METAR KLFI 210057Z 22008KT 8SM -RA FEW030 BKN080 BKN140 25/25 A2979 RMK AO2A
                 SLP094 P0003 T02500250 =
2018-06-20 19:59 METAR KLFI 202359Z 18005KT 6SM -RA FEW030 BKN080 BKN140 26/24 A2980 RMK AO2A LTG
                 DSNT SW RAB01 TSE45 SLP098 P0002 60002 T02570243 10315 20257 50002 =
2018-06-20 19:45 METAR KLFI 202345Z 21004KT 5SM -RA FEW030 SCT080 BKN140 26/24 A2980 RMK AO2A LTG
                 DSNT SW RAB01 TSE45 SLP098 =
2018-06-20 19:33 METAR KLFI 202333Z 20007KT 6SM -TSRA CLR 27/25 A2980 RMK AO2A SLP098 =
2018-06-20 18:56 METAR KLFI 202256Z 15004KT 10SM TS FEW030 BKN050 OVC160 28/24 A2981 RMK AO2A
                 TSB45 SLP101 T02780240 =
2018-06-20 18:45 METAR KLFI 202245Z 15003KT 10SM TS FEW030 BKN050 OVC160 28/24 A2981 RMK AO2A
                 SLP101 =
2018-06-20 17:56 METAR KLFI 202156Z 14004KT 10SM SCT080 BKN140 29/22 A2980 RMK AO2A LTG DSNT S
                 SLP098 T02860223 =
2018-06-20 17:18 METAR KLFI 202118Z 15006KT 8SM FEW080SCT080 BKN140 FEW200 29/24 A2979 RMK LTG
                 DSNT S SLP094 =
2018-06-20 16:56 METAR KLFI 202056Z 11007KT 10SM VCTS FEW030 SCT080 BKN140 28/23 A2979 RMK AO2A
                 LTG DSNT SW AND NW SLP094 T02840228 57016 =
2018-06-20 16:41 METAR KLFI 202041Z 11007KT 10SM VCTS FEW030 SCT080 BKN160 29/22 A2980 RMK LTG
                 DSNT W-NW SLP098 =
2018-06-20 15:58 METAR KLFI 201958Z 11007KT 10SM FEW030 SCT050 BKN160 29/22 A2980 RMK LTG DSNT W
                 SLP098 T02930222 57017 =
2018-06-20 14:56 METAR KLFI 201856Z 07006KT 10SM BKN035 31/24 A2984 RMK SLPNO =
2018-06-20 13:56 METAR KLFI 201756Z 20003KT 10SM BKN037 30/24 A2984 RMK AO2A SLP111 60000
                 T02960244 10297 20254 57013 =
2018-06-20 12:56 METAR KLFI 201656Z 10003KT 10SM BKN031 29/23 A2986 RMK AO2A SLP118 T02920231 =
2018-06-20 11:56 METAR KLFI 201556Z 10003KT 10SM SCT030 30/24 A2987 RMK AO2A SLP122 T02960235 =
2018-06-20 10:56 METAR KLFI 201456Z 14003KT 10SM SCT030 28/24 A2988 RMK AO2A SLP125 60000
                 T02820240 50001 =
2018-06-20 09:56 METAR KLFI 201356Z AUTO 02005KT 9SM SCT017 28/24 A2988 RMK AO2 SLP125 T02820235
                 =
2018-06-20 08:56 METAR KLFI 201256Z 04003KT 7SM SCT040 27/24 A2988 RMK AO2A RAB05E17 SLP125 P0000
                 T02700244 =
2018-06-20 07:56 METAR KLFI 201156Z 00000KT 7SM SCT008 25/24 A2988 RMK AO2A SLP125 70007
                 T02530244 10253 20234 52011 =
2018-06-20 06:56 METAR KLFI 201056Z 32003KT 7SM BR SCT006 24/24 A2987 RMK AO2A SLP122 T02420242 =
2018-06-20 06:41 METAR KLFI 201041Z 32004KT 7SM BR SCT006 24/24 A2986 RMK AO2A SLP118 =

Support USWX by starting your Amazon purchase here.